Time;durP1;ratioP1;P1;durP2;ratioP2;P2;SDS_P1;SDS_P2;PMS_P1;PMS_P2;Temp;Humidity;BMP_temperature;BMP_pressure;BME280_temperature;BME280_humidity;BME280_pressure;Samples;Min_cycle;Max_cycle;Signal;HPM_P1;HPM_P2
2024/03/28 00:01:21;;;;;;;;;1.00;1.00;;;;;11.49;67.33;97692.13;5079574;28;47251;-63
2024/03/28 00:03:46;;;;;;;;;0.50;0.50;;;;;11.65;67.33;97724.56;5081070;27;45440;-63
2024/03/28 00:06:11;;;;;;;;;2.00;1.75;;;;;11.78;67.38;97745.75;5081262;28;45377;-63
2024/03/28 00:08:37;;;;;;;;;1.25;1.25;;;;;11.66;67.09;97741.44;5080941;27;45436;-63
2024/03/28 00:11:02;;;;;;;;;1.00;1.00;;;;;11.65;67.42;97750.44;5079496;28;46307;-63
2024/03/28 00:13:28;;;;;;;;;3.00;1.00;;;;;11.55;67.33;97738.84;5080747;27;45443;-63
2024/03/28 00:16:02;;;;;;;;;2.00;2.00;;;;;11.68;67.83;97760.88;5081106;27;45500;-63
2024/03/28 00:18:28;;;;;;;;;3.75;1.50;;;;;11.71;68.19;97763.31;5080775;28;45319;-63
2024/03/28 00:20:58;;;;;;;;;1.00;1.00;;;;;11.52;68.46;97749.78;5080853;27;46361;-63
2024/03/28 00:23:24;;;;;;;;;1.00;1.00;;;;;11.62;69.21;97769.41;5080798;27;45297;-62
2024/03/28 00:25:53;;;;;;;;;1.00;1.00;;;;;11.59;70.13;97775.84;5080753;27;45598;-62
2024/03/28 00:28:19;;;;;;;;;0.75;0.75;;;;;11.40;70.44;97747.16;5079211;28;45545;-62
2024/03/28 00:30:44;;;;;;;;;1.75;1.00;;;;;11.56;71.26;97764.56;5080569;27;46260;-63
2024/03/28 00:33:10;;;;;;;;;1.00;1.00;;;;;11.54;71.74;97766.53;5080619;27;45300;-62
2024/03/28 00:35:35;;;;;;;;;1.00;1.00;;;;;11.54;73.13;97763.84;5080990;27;45461;-62
2024/03/28 00:38:00;;;;;;;;;1.00;1.00;;;;;11.31;72.81;97731.94;5080439;27;45323;-62
2024/03/28 00:40:26;;;;;;;;;3.00;2.00;;;;;11.29;73.62;97736.53;5080322;27;45349;-63
2024/03/28 00:42:52;;;;;;;;;0.00;0.00;;;;;11.39;73.85;97760.66;5079139;28;45427;-63
2024/03/28 00:45:18;;;;;;;;;1.00;1.00;;;;;11.39;74.51;97752.63;5080779;28;45480;-63
2024/03/28 00:47:43;;;;;;;;;2.00;1.25;;;;;11.19;74.75;97715.06;5080284;28;45402;-63
2024/03/28 00:50:09;;;;;;;;;2.00;1.00;;;;;11.13;75.14;97699.59;5080421;28;45370;-63
2024/03/28 00:52:35;;;;;;;;;2.00;1.00;;;;;11.40;75.27;97743.66;5080301;28;45404;-62
2024/03/28 00:55:00;;;;;;;;;0.50;0.50;;;;;11.43;75.86;97741.56;5080289;27;45519;-63
2024/03/28 00:57:25;;;;;;;;;1.25;0.75;;;;;11.13;76.05;97695.09;5080266;27;45539;-62
2024/03/28 00:59:51;;;;;;;;;2.75;1.00;;;;;11.10;76.26;97687.34;5080327;27;46484;-63
2024/03/28 01:02:16;;;;;;;;;1.50;1.50;;;;;11.13;76.14;97680.91;5080044;27;45541;-63
2024/03/28 01:04:42;;;;;;;;;2.00;1.00;;;;;11.08;76.48;97673.28;5080434;27;45395;-62
2024/03/28 01:07:07;;;;;;;;;1.25;1.25;;;;;11.21;76.69;97690.91;5080047;27;45599;-62
2024/03/28 01:09:32;;;;;;;;;3.00;2.00;;;;;11.06;76.94;97661.88;5080105;28;45420;-62
2024/03/28 01:11:58;;;;;;;;;1.00;1.00;;;;;11.07;77.35;97628.84;5079787;27;45429;-62
2024/03/28 01:14:23;;;;;;;;;1.00;1.00;;;;;11.09;76.93;97631.41;5080211;27;45426;-62
2024/03/28 01:16:48;;;;;;;;;1.00;0.50;;;;;11.00;77.03;97630.34;5078582;28;45504;-62
2024/03/28 01:19:14;;;;;;;;;0.25;0.25;;;;;11.11;77.36;97642.81;5079690;28;45393;-62
2024/03/28 01:21:39;;;;;;;;;0.75;0.75;;;;;10.94;77.26;97618.38;5079850;28;46216;-62
2024/03/28 01:24:04;;;;;;;;;1.00;1.00;;;;;10.94;77.47;97628.19;5079536;28;45396;-62
2024/03/28 01:26:29;;;;;;;;;2.50;0.00;;;;;10.94;78.20;97645.06;5079462;27;45732;-62
2024/03/28 01:28:55;;;;;;;;;1.75;0.75;;;;;10.99;77.62;97652.66;5079853;28;45451;-62
2024/03/28 01:31:20;;;;;;;;;2.00;1.00;;;;;11.08;77.99;97662.59;5078168;28;49942;-62
2024/03/28 01:33:45;;;;;;;;;1.50;1.50;;;;;10.91;77.97;97628.47;5080007;28;45311;-62
2024/03/28 01:36:11;;;;;;;;;1.00;1.00;;;;;10.98;78.07;97648.31;5079603;28;45478;-63
2024/03/28 01:38:36;;;;;;;;;1.00;1.00;;;;;10.89;78.29;97649.94;5079710;27;46192;-62
2024/03/28 01:41:01;;;;;;;;;1.00;1.00;;;;;10.92;78.33;97667.50;5077513;28;54795;-62
2024/03/28 01:43:27;;;;;;;;;0.75;0.75;;;;;10.86;78.32;97660.00;5078292;28;45408;-62
2024/03/28 01:45:52;;;;;;;;;1.50;1.50;;;;;10.82;78.45;97662.09;5078031;28;45471;-62
2024/03/28 01:48:18;;;;;;;;;0.25;0.25;;;;;10.95;79.01;97685.94;5079667;27;45302;-63
2024/03/28 01:50:44;;;;;;;;;1.00;1.00;;;;;10.84;79.44;97675.31;5079478;27;45322;-62
2024/03/28 01:53:09;;;;;;;;;2.00;2.00;;;;;10.79;79.25;97661.50;5079755;27;45500;-62
2024/03/28 01:55:36;;;;;;;;;2.25;2.25;;;;;10.98;79.71;97692.88;5078889;27;45539;-62
2024/03/28 01:58:03;;;;;;;;;1.25;0.00;;;;;10.86;79.26;97684.03;5079508;27;45670;-62
2024/03/28 02:00:28;;;;;;;;;1.50;1.50;;;;;10.80;79.77;97663.19;5079285;27;45503;-62
2024/03/28 02:02:55;;;;;;;;;1.00;1.00;;;;;10.86;79.52;97676.88;5079581;27;45391;-62
2024/03/28 02:05:22;;;;;;;;;2.00;1.00;;;;;11.04;79.97;97695.00;5079147;27;45542;-62
2024/03/28 02:07:47;;;;;;;;;1.00;1.00;;;;;10.90;80.18;97672.97;5079391;27;45509;-62
2024/03/28 02:10:12;;;;;;;;;1.00;1.00;;;;;10.85;79.87;97669.84;5079019;27;45408;-63
2024/03/28 02:12:38;;;;;;;;;0.50;0.50;;;;;10.99;79.95;97695.38;5079507;28;45288;-62
2024/03/28 02:15:04;;;;;;;;;1.00;1.00;;;;;10.71;80.32;97643.47;5079252;28;45294;-62
2024/03/28 02:17:29;;;;;;;;;1.75;1.00;;;;;10.71;80.17;97654.97;5078995;27;45417;-62
2024/03/28 02:19:55;;;;;;;;;1.75;1.75;;;;;10.68;80.35;97647.22;5078650;28;46958;-62
2024/03/28 02:22:20;;;;;;;;;1.25;0.75;;;;;10.79;80.74;97677.50;5079127;28;45376;-62
2024/03/28 02:24:49;;;;;;;;;2.75;2.00;;;;;10.70;81.05;97660.44;5078819;27;45523;-62
2024/03/28 02:27:14;;;;;;;;;2.00;1.00;;;;;10.69;80.90;97656.94;5077523;28;47239;-62
2024/03/28 02:29:39;;;;;;;;;0.00;0.00;;;;;10.69;81.20;97667.59;5078996;27;45324;-62
2024/03/28 02:32:05;;;;;;;;;0.25;0.25;;;;;10.73;81.11;97669.03;5079146;28;45366;-62
2024/03/28 02:34:30;;;;;;;;;1.00;1.00;;;;;10.91;81.37;97698.69;5079147;27;45543;-62
2024/03/28 02:36:56;;;;;;;;;0.25;0.25;;;;;10.85;81.13;97679.69;5082557;27;46086;-62
2024/03/28 02:39:21;;;;;;;;;1.25;1.00;;;;;10.70;81.29;97653.28;5082359;27;45542;-62
2024/03/28 02:41:47;;;;;;;;;0.00;0.00;;;;;10.68;81.43;97654.38;5082663;27;45380;-62
2024/03/28 02:44:12;;;;;;;;;0.00;0.00;;;;;10.99;81.64;97699.88;5081016;28;45296;-62
2024/03/28 02:46:37;;;;;;;;;0.25;0.25;;;;;10.74;81.71;97656.53;5082323;28;46392;-62
2024/03/28 02:49:03;;;;;;;;;0.00;0.00;;;;;10.90;81.25;97686.31;5082522;27;45306;-62
2024/03/28 02:51:28;;;;;;;;;0.00;0.00;;;;;10.99;82.00;97702.53;5082557;27;45371;-62
2024/03/28 02:53:53;;;;;;;;;0.00;0.00;;;;;10.82;81.80;97688.75;5080829;28;51550;-62
2024/03/28 02:56:19;;;;;;;;;0.00;0.00;;;;;10.98;81.76;97719.56;5081715;27;51334;-62
2024/03/28 02:58:44;;;;;;;;;1.00;1.00;;;;;10.88;82.03;97706.13;5080883;28;45621;-62
2024/03/28 03:01:10;;;;;;;;;0.00;0.00;;;;;10.78;81.87;97689.16;5082226;28;45432;-62
2024/03/28 03:03:35;;;;;;;;;0.00;0.00;;;;;10.75;82.13;97703.59;5081965;28;45478;-62
2024/03/28 03:06:00;;;;;;;;;0.50;0.00;;;;;10.73;81.77;97700.22;5082123;28;47786;-62
2024/03/28 03:08:26;;;;;;;;;0.50;0.00;;;;;10.76;82.43;97710.63;5080636;28;45437;-62
2024/03/28 03:10:51;;;;;;;;;0.00;0.00;;;;;10.74;81.80;97696.53;5082193;28;45436;-62
2024/03/28 03:13:16;;;;;;;;;1.00;1.00;;;;;10.96;82.94;97714.34;5081882;28;45519;-62
2024/03/28 03:15:51;;;;;;;;;0.00;0.00;;;;;10.77;81.75;97687.47;5081854;27;46339;-62
2024/03/28 03:18:19;;;;;;;;;0.00;0.00;;;;;10.80;81.11;97685.38;5081969;28;45771;-62
2024/03/28 03:20:49;;;;;;;;;0.00;0.00;;;;;10.71;81.79;97688.81;5080648;28;45388;-62
2024/03/28 03:23:15;;;;;;;;;0.00;0.00;;;;;10.85;81.52;97711.69;5081927;27;45563;-62
2024/03/28 03:25:59;;;;;;;;;0.00;0.00;;;;;10.80;80.65;97738.75;5081319;27;45599;-62
2024/03/28 03:36:36;;;;;;;;;0.00;0.00;;;;;10.65;80.41;97730.16;5081607;28;45762;-62
2024/03/28 03:39:02;;;;;;;;;0.00;0.00;;;;;10.80;80.47;97754.75;5081632;27;45338;-62
2024/03/28 03:41:28;;;;;;;;;0.50;0.00;;;;;10.64;80.20;97733.81;5081403;27;45260;-62
2024/03/28 03:43:53;;;;;;;;;0.00;0.00;;;;;10.61;80.17;97739.41;5081597;28;45414;-62
2024/03/28 03:46:18;;;;;;;;;0.00;0.00;;;;;10.62;79.89;97745.56;5080648;27;49328;-62
2024/03/28 03:48:43;;;;;;;;;0.00;0.00;;;;;10.52;80.04;97733.00;5081558;28;45406;-62
2024/03/28 03:51:09;;;;;;;;;0.00;0.00;;;;;10.50;80.58;97736.75;5081454;27;45322;-62
2024/03/28 03:53:34;;;;;;;;;0.00;0.00;;;;;10.55;80.14;97756.72;5080167;28;46455;-62
2024/03/28 03:55:59;;;;;;;;;0.00;0.00;;;;;10.69;80.26;97776.97;5080967;27;45596;-63
2024/03/28 03:58:25;;;;;;;;;0.00;0.00;;;;;10.50;79.77;97756.25;5079996;28;45494;-62
2024/03/28 04:00:51;;;;;;;;;0.00;0.00;;;;;10.71;80.03;97792.88;5081182;27;45421;-62
2024/03/28 04:03:19;;;;;;;;;0.00;0.00;;;;;10.48;79.13;97770.69;5081383;27;45348;-62
2024/03/28 04:05:44;;;;;;;;;0.00;0.00;;;;;10.46;79.81;97780.63;5080922;28;45806;-62
2024/03/28 04:08:09;;;;;;;;;0.00;0.00;;;;;10.47;79.81;97804.47;5081352;27;45425;-62
2024/03/28 04:10:35;;;;;;;;;0.00;0.00;;;;;10.46;79.76;97804.63;5080874;27;45377;-62
2024/03/28 04:13:00;;;;;;;;;0.75;0.00;;;;;10.40;79.25;97808.63;5081197;28;45464;-62
2024/03/28 04:15:25;;;;;;;;;0.00;0.00;;;;;10.62;79.62;97858.44;5079279;28;47577;-62
2024/03/28 04:17:51;;;;;;;;;1.00;0.00;;;;;10.51;79.51;97863.78;5081033;27;45393;-62
2024/03/28 04:20:16;;;;;;;;;0.00;0.00;;;;;10.43;79.24;97853.72;5080968;28;45290;-62
2024/03/28 04:22:42;;;;;;;;;0.00;0.00;;;;;10.43;79.39;97856.38;5081124;27;45415;-62
2024/03/28 04:25:07;;;;;;;;;0.00;0.00;;;;;10.42;79.15;97870.66;5080483;28;47669;-62
2024/03/28 04:27:33;;;;;;;;;0.00;0.00;;;;;10.38;78.83;97879.88;5079515;28;45442;-62
2024/03/28 04:29:58;;;;;;;;;0.00;0.00;;;;;10.32;78.47;97880.34;5080950;27;45426;-62
2024/03/28 04:32:24;;;;;;;;;0.00;0.00;;;;;10.34;78.33;97887.28;5080805;28;45389;-62
2024/03/28 04:34:49;;;;;;;;;0.00;0.00;;;;;10.41;77.94;97898.31;5080540;27;46638;-62
2024/03/28 04:37:14;;;;;;;;;0.00;0.00;;;;;10.36;78.09;97901.34;5079341;28;45492;-62
2024/03/28 04:39:40;;;;;;;;;0.00;0.00;;;;;10.38;77.42;97899.41;5080450;27;45794;-62
2024/03/28 04:42:06;;;;;;;;;0.00;0.00;;;;;10.49;76.98;97919.91;5080827;27;45368;-62
2024/03/28 04:44:31;;;;;;;;;0.00;0.00;;;;;10.47;77.34;97942.31;5080392;28;45523;-62
2024/03/28 04:46:57;;;;;;;;;0.00;0.00;;;;;10.31;76.55;97927.47;5080464;28;45452;-62
2024/03/28 04:49:22;;;;;;;;;0.00;0.00;;;;;10.46;76.74;97954.81;5080644;27;45783;-62
2024/03/28 04:51:49;;;;;;;;;0.00;0.00;;;;;10.31;77.08;97940.81;5079142;28;45575;-62
2024/03/28 04:54:14;;;;;;;;;0.00;0.00;;;;;10.35;75.62;97971.63;5080287;28;45996;-62
2024/03/28 04:56:41;;;;;;;;;0.00;0.00;;;;;10.19;75.12;97950.59;5080091;28;45318;-62
2024/03/28 04:59:06;;;;;;;;;0.00;0.00;;;;;10.18;74.91;97959.53;5079649;27;45290;-62
2024/03/28 05:01:32;;;;;;;;;0.00;0.00;;;;;10.13;75.59;97955.53;5058724;28;45384;-62
2024/03/28 05:03:57;;;;;;;;;0.00;0.00;;;;;10.33;75.30;98002.03;5076607;28;47306;-62
2024/03/28 05:06:23;;;;;;;;;0.00;0.00;;;;;10.22;74.95;97992.13;5079033;28;45453;-62
2024/03/28 05:08:49;;;;;;;;;0.00;0.00;;;;;10.14;75.48;97982.06;5092672;27;45346;-62
2024/03/28 05:11:14;;;;;;;;;0.50;0.00;;;;;10.08;75.24;97987.00;5070948;28;45584;-62
2024/03/28 05:13:40;;;;;;;;;0.75;0.00;;;;;10.08;74.96;97987.84;5079863;27;46409;-62
2024/03/28 05:16:07;;;;;;;;;1.00;0.00;;;;;10.02;75.68;97988.28;5079798;28;49152;-62
2024/03/28 05:18:33;;;;;;;;;0.00;0.00;;;;;10.07;75.30;97996.78;5080097;27;45402;-62
2024/03/28 05:20:58;;;;;;;;;0.00;0.00;;;;;10.18;75.70;98026.19;5079995;28;45464;-62
2024/03/28 05:23:23;;;;;;;;;0.25;0.00;;;;;10.10;75.59;98009.06;5078400;28;47508;-62
2024/03/28 05:25:49;;;;;;;;;0.00;0.00;;;;;10.08;75.29;98022.50;5079624;28;45505;-62
2024/03/28 05:28:14;;;;;;;;;0.00;0.00;;;;;9.97;75.10;98011.75;5078598;28;45318;-63
2024/03/28 05:30:40;;;;;;;;;0.00;0.00;;;;;10.23;75.36;98076.50;5079886;27;45473;-62
2024/03/28 05:33:06;;;;;;;;;0.50;0.00;;;;;10.02;75.12;98045.13;5079760;28;46520;-62
2024/03/28 05:35:31;;;;;;;;;0.00;0.00;;;;;9.87;75.14;98032.06;5078328;28;45315;-62
2024/03/28 05:37:57;;;;;;;;;0.50;0.00;;;;;10.11;75.07;98077.41;5078549;28;45354;-62
2024/03/28 05:40:22;;;;;;;;;0.00;0.00;;;;;9.93;75.14;98064.44;5078144;28;45451;-62
2024/03/28 05:42:47;;;;;;;;;0.00;0.00;;;;;10.09;75.31;98093.50;5079581;27;45401;-62
2024/03/28 05:45:13;;;;;;;;;0.00;0.00;;;;;10.10;75.09;98091.69;5079783;28;45256;-62
2024/03/28 05:47:41;;;;;;;;;0.00;0.00;;;;;10.08;75.77;98088.28;5079459;27;45342;-62
2024/03/28 05:50:07;;;;;;;;;0.00;0.00;;;;;9.90;75.83;98064.66;5079620;27;45535;-62
2024/03/28 05:52:32;;;;;;;;;0.00;0.00;;;;;9.87;75.88;98059.53;5079343;27;45381;-62
2024/03/28 05:54:57;;;;;;;;;3.00;0.00;;;;;9.89;75.87;98070.09;5079342;28;45365;-62
2024/03/28 05:57:23;;;;;;;;;1.00;0.00;;;;;9.88;75.20;98057.75;5079336;27;45303;-62
2024/03/28 05:59:48;;;;;;;;;0.00;0.00;;;;;9.97;75.53;98075.72;5079014;28;56138;-62
2024/03/28 06:02:13;;;;;;;;;0.00;0.00;;;;;9.91;76.05;98069.03;5079265;28;46439;-62
2024/03/28 06:04:39;;;;;;;;;0.00;0.00;;;;;9.88;75.85;98071.91;5079340;27;45440;-62
2024/03/28 06:07:04;;;;;;;;;0.00;0.00;;;;;9.87;75.73;98064.03;5078141;28;45315;-62
2024/03/28 06:09:30;;;;;;;;;0.00;0.00;;;;;9.81;75.99;98054.69;5077919;28;46078;-62
2024/03/28 06:11:57;;;;;;;;;0.00;0.00;;;;;9.97;76.24;98081.06;5077161;28;47726;-62
2024/03/28 06:14:22;;;;;;;;;0.00;0.00;;;;;9.83;76.21;98058.91;5078080;28;45590;-62
2024/03/28 06:16:47;;;;;;;;;0.00;0.00;;;;;10.08;76.87;98097.13;5079216;27;45450;-62
2024/03/28 06:19:13;;;;;;;;;0.00;0.00;;;;;9.97;76.33;98087.25;5079187;27;45286;-62
2024/03/28 06:21:38;;;;;;;;;0.00;0.00;;;;;10.16;77.10;98105.41;5079005;27;46116;-62
2024/03/28 06:24:04;;;;;;;;;0.00;0.00;;;;;9.94;77.14;98084.81;5079143;27;45356;-62
2024/03/28 06:26:33;;;;;;;;;0.00;0.00;;;;;9.92;76.94;98076.09;5077534;28;45756;-62
2024/03/28 06:28:58;;;;;;;;;0.00;0.00;;;;;10.07;77.19;98114.06;5079042;27;45564;-62
2024/03/28 06:31:24;;;;;;;;;0.00;0.00;;;;;9.82;76.44;98075.00;5078793;27;46017;-62
2024/03/28 06:33:50;;;;;;;;;0.00;0.00;;;;;9.84;77.00;98089.09;5079113;28;45347;-62
2024/03/28 06:36:16;;;;;;;;;0.75;0.00;;;;;9.90;77.10;98111.78;5094833;27;45451;-62
2024/03/28 06:38:42;;;;;;;;;0.00;0.00;;;;;9.92;76.96;98117.84;5078984;27;45505;-62
2024/03/28 06:41:08;;;;;;;;;0.00;0.00;;;;;9.91;76.97;98122.31;5078366;27;45984;-62
2024/03/28 06:43:33;;;;;;;;;0.00;0.00;;;;;9.97;76.78;98129.91;5078994;28;45342;-62
2024/03/28 06:45:58;;;;;;;;;0.00;0.00;;;;;9.75;76.96;98101.25;5078921;27;45444;-62
2024/03/28 06:48:24;;;;;;;;;0.00;0.00;;;;;9.78;76.82;98105.53;5078878;28;45469;-62
2024/03/28 06:50:49;;;;;;;;;0.00;0.00;;;;;9.69;76.94;98114.16;5077391;28;48196;-62
2024/03/28 06:53:14;;;;;;;;;1.00;0.00;;;;;9.71;76.98;98133.56;5078747;27;45701;-62
2024/03/28 06:55:40;;;;;;;;;0.00;0.00;;;;;9.65;76.62;98142.81;5078455;27;45387;-62
2024/03/28 06:58:05;;;;;;;;;0.00;0.00;;;;;9.61;77.01;98142.19;5078792;28;45418;-62
2024/03/28 07:00:31;;;;;;;;;0.00;0.00;;;;;9.69;77.39;98156.75;5078503;27;45589;-62
2024/03/28 07:02:56;;;;;;;;;0.00;0.00;;;;;9.76;76.84;98174.88;5077266;28;45876;-62
2024/03/28 07:05:22;;;;;;;;;0.00;0.00;;;;;9.67;77.20;98169.34;5078390;28;45457;-62
2024/03/28 07:07:47;;;;;;;;;0.00;0.00;;;;;9.58;77.56;98161.03;5078753;28;45508;-62
2024/03/28 07:10:13;;;;;;;;;0.00;0.00;;;;;9.54;76.82;98154.22;5078154;27;45441;-62
2024/03/28 07:12:38;;;;;;;;;0.00;0.00;;;;;9.60;76.80;98176.91;5078569;28;45794;-62
2024/03/28 07:15:05;;;;;;;;;0.00;0.00;;;;;9.71;77.31;98206.31;5078161;28;50077;-62
2024/03/28 07:17:30;;;;;;;;;0.00;0.00;;;;;9.58;77.30;98185.00;5078464;27;45368;-62
2024/03/28 07:19:56;;;;;;;;;0.00;0.00;;;;;9.58;76.85;98205.47;5078142;27;46581;-62
2024/03/28 07:22:22;;;;;;;;;0.00;0.00;;;;;9.48;77.19;98191.09;5081409;27;45581;-62
2024/03/28 07:24:47;;;;;;;;;0.00;0.00;;;;;9.61;76.75;98203.44;5081591;27;45431;-62
2024/03/28 07:27:12;;;;;;;;;1.00;0.00;;;;;9.57;76.66;98187.78;5081771;27;45325;-62
2024/03/28 07:29:38;;;;;;;;;0.00;0.00;;;;;9.78;77.13;98228.91;5081590;28;46453;-62
2024/03/28 07:32:03;;;;;;;;;0.50;0.00;;;;;9.62;76.71;98205.16;5080350;28;45317;-62
2024/03/28 07:34:29;;;;;;;;;0.00;0.00;;;;;9.59;76.66;98226.66;5081743;28;45261;-62
2024/03/28 07:36:54;;;;;;;;;0.25;0.00;;;;;9.74;76.06;98234.56;5081809;27;45320;-62
2024/03/28 07:39:23;;;;;;;;;0.00;0.00;;;;;9.46;76.53;98199.19;5081497;28;46417;-62
2024/03/28 07:41:48;;;;;;;;;0.00;0.00;;;;;9.53;76.15;98202.28;5081309;28;45616;-62
2024/03/28 07:44:13;;;;;;;;;1.00;0.00;;;;;9.58;75.77;98230.28;5081710;27;45394;-62
2024/03/28 07:46:39;;;;;;;;;0.00;0.00;;;;;9.56;75.99;98231.34;5081468;27;45417;-62
2024/03/28 07:49:04;;;;;;;;;0.00;0.00;;;;;9.60;76.43;98233.69;5081146;28;52000;-62
2024/03/28 07:51:31;;;;;;;;;0.50;0.00;;;;;9.84;75.91;98248.97;5081486;27;45330;-62
2024/03/28 07:53:57;;;;;;;;;0.00;0.00;;;;;9.75;76.08;98238.94;5097172;27;45284;-62
2024/03/28 07:56:23;;;;;;;;;0.00;0.00;;;;;9.78;76.16;98262.69;5079749;28;45479;-62
2024/03/28 07:58:48;;;;;;;;;1.00;0.00;;;;;9.74;75.89;98254.06;5081125;27;45469;-62
2024/03/28 08:01:14;;;;;;;;;0.00;0.00;;;;;9.88;75.66;98274.44;5081303;27;45326;-62
2024/03/28 08:03:39;;;;;;;;;1.00;0.00;;;;;9.89;75.25;98272.59;5081186;27;45415;-62
2024/03/28 08:06:05;;;;;;;;;0.50;0.00;;;;;9.76;75.31;98249.47;5081265;28;45573;-62
2024/03/28 08:08:35;;;;;;;;;1.00;0.00;;;;;9.95;75.23;98290.84;5079603;28;46841;-62
2024/03/28 08:11:01;;;;;;;;;0.50;0.00;;;;;9.80;75.37;98255.44;5081084;27;45324;-62
2024/03/28 08:13:26;;;;;;;;;0.00;0.00;;;;;9.85;74.89;98273.78;5081253;27;45323;-62
2024/03/28 08:15:52;;;;;;;;;1.00;0.00;;;;;9.88;75.18;98279.75;5081034;28;45330;-62
2024/03/28 08:18:18;;;;;;;;;0.00;0.00;;;;;9.97;74.54;98294.25;5080723;27;45561;-62
2024/03/28 08:20:44;;;;;;;;;0.00;0.00;;;;;9.88;74.46;98273.59;5080844;27;45603;-62
2024/03/28 08:23:10;;;;;;;;;0.25;0.00;;;;;9.88;74.75;98298.41;5081067;27;45563;-62
2024/03/28 08:25:36;;;;;;;;;0.00;0.00;;;;;9.82;74.15;98285.50;5080498;28;45425;-62
2024/03/28 08:28:01;;;;;;;;;1.00;0.00;;;;;9.98;74.69;98294.16;5080462;27;45516;-62
2024/03/28 08:30:26;;;;;;;;;0.00;0.00;;;;;10.08;74.65;98301.53;5080765;28;45565;-62
2024/03/28 08:32:55;;;;;;;;;0.50;0.00;;;;;10.08;74.25;98317.50;5078179;28;45455;-62
2024/03/28 08:35:21;;;;;;;;;0.50;0.00;;;;;9.93;74.40;98284.78;5080646;28;45659;-62
2024/03/28 08:37:46;;;;;;;;;0.00;0.00;;;;;10.20;74.89;98340.66;5080646;27;45306;-62
2024/03/28 08:40:12;;;;;;;;;1.50;0.50;;;;;10.06;74.48;98306.13;5080330;27;45224;-62
2024/03/28 08:42:40;;;;;;;;;0.00;0.00;;;;;10.13;73.91;98320.72;5080716;27;45411;-62
2024/03/28 08:45:08;;;;;;;;;0.00;0.00;;;;;10.12;74.02;98330.53;5080580;28;45522;-62
2024/03/28 08:47:35;;;;;;;;;0.00;0.00;;;;;10.15;74.19;98350.78;5078870;28;47360;-62
2024/03/28 08:50:00;;;;;;;;;0.00;0.00;;;;;10.11;73.76;98331.47;5079221;28;45524;-62
2024/03/28 08:52:26;;;;;;;;;0.00;0.00;;;;;10.17;73.95;98343.53;5080504;27;45398;-62
2024/03/28 08:54:51;;;;;;;;;0.00;0.00;;;;;10.43;74.52;98386.25;5080234;28;45525;-62
2024/03/28 08:57:17;;;;;;;;;0.00;0.00;;;;;10.24;73.19;98351.94;5080131;28;45561;-62
2024/03/28 08:59:42;;;;;;;;;1.25;0.00;;;;;10.29;73.53;98356.03;5078846;28;45506;-62
2024/03/28 09:02:08;;;;;;;;;0.75;0.00;;;;;10.31;73.76;98353.25;5080189;28;45741;-62
2024/03/28 09:04:34;;;;;;;;;0.75;0.00;;;;;10.43;73.38;98381.75;5080246;27;45508;-62
2024/03/28 09:07:00;;;;;;;;;0.00;0.00;;;;;10.60;72.99;98419.75;5080200;27;46295;-62
2024/03/28 09:09:25;;;;;;;;;0.00;0.00;;;;;10.44;72.89;98393.25;5080060;27;45451;-62
2024/03/28 09:11:50;;;;;;;;;0.00;0.00;;;;;10.46;73.28;98392.22;5080263;27;45360;-62
2024/03/28 09:14:16;;;;;;;;;0.00;0.00;;;;;10.64;72.92;98416.75;5078915;28;45377;-62
2024/03/28 09:16:41;;;;;;;;;1.00;0.00;;;;;10.67;72.86;98421.00;5094059;27;48475;-62
2024/03/28 09:19:07;;;;;;;;;0.00;0.00;;;;;10.62;73.54;98410.66;5079973;27;45462;-62
2024/03/28 09:21:32;;;;;;;;;0.00;0.00;;;;;10.65;72.67;98412.28;5080023;27;45299;-62
2024/03/28 09:23:58;;;;;;;;;0.00;0.00;;;;;10.74;72.54;98417.81;5080012;27;45452;-62
2024/03/28 09:26:23;;;;;;;;;0.00;0.00;;;;;10.70;72.23;98415.47;5079300;27;45507;-62
2024/03/28 09:28:52;;;;;;;;;0.00;0.00;;;;;10.86;71.78;98437.44;5080061;27;45488;-62
2024/03/28 09:31:17;;;;;;;;;0.00;0.00;;;;;10.86;72.01;98434.78;5079808;27;45362;-62
2024/03/28 09:33:42;;;;;;;;;0.25;0.00;;;;;10.91;71.64;98426.47;5080044;27;45330;-62
2024/03/28 09:36:09;;;;;;;;;0.00;0.00;;;;;10.92;71.49;98418.31;5079526;27;45272;-62
2024/03/28 09:38:34;;;;;;;;;0.00;0.00;;;;;10.94;71.07;98427.09;5079826;27;45586;-62
2024/03/28 09:41:05;;;;;;;;;1.00;0.00;;;;;10.70;70.69;98381.63;5079586;27;45348;-62
2024/03/28 09:43:33;;;;;;;;;0.00;0.00;;;;;10.75;70.50;98382.16;5079388;27;45508;-62
2024/03/28 09:45:59;;;;;;;;;1.00;0.00;;;;;10.89;70.01;98399.88;5079366;27;45989;-62
2024/03/28 09:48:25;;;;;;;;;0.00;0.00;;;;;10.82;70.63;98385.25;5079823;27;45350;-62
2024/03/28 09:50:52;;;;;;;;;0.00;0.00;;;;;10.99;69.97;98432.06;5078288;28;45450;-62
2024/03/28 09:53:18;;;;;;;;;0.00;0.00;;;;;10.91;69.56;98421.97;5079622;27;45463;-62
2024/03/28 09:55:44;;;;;;;;;0.75;0.00;;;;;11.09;69.77;98462.53;5078901;27;45553;-62
2024/03/28 09:58:09;;;;;;;;;0.00;0.00;;;;;10.94;69.97;98418.22;5079669;28;45355;-62
2024/03/28 10:00:36;;;;;;;;;0.00;0.00;;;;;11.17;69.78;98461.97;5079389;27;46270;-62
2024/03/28 10:03:19;;;;;;;;;1.00;0.00;;;;;11.05;69.69;98423.66;5079419;28;45438;-62
2024/03/28 10:05:44;;;;;;;;;0.00;0.00;;;;;11.19;70.08;98446.69;5079065;27;45489;-62
2024/03/28 10:08:11;;;;;;;;;0.00;0.00;;;;;11.18;69.92;98450.31;5079479;28;45436;-62
2024/03/28 10:10:37;;;;;;;;;0.00;0.00;;;;;11.15;69.95;98423.00;5079309;27;45406;-62
2024/03/28 10:13:07;;;;;;;;;0.00;0.00;;;;;11.10;69.87;98428.66;5079335;27;45283;-62
2024/03/28 10:15:35;;;;;;;;;0.00;0.00;;;;;11.08;69.46;98423.44;5078943;27;46441;-62
2024/03/28 10:18:02;;;;;;;;;0.00;0.00;;;;;11.36;69.48;98456.19;5079162;27;45584;-62
2024/03/28 10:20:27;;;;;;;;;1.00;0.00;;;;;11.36;68.90;98449.97;5078971;27;45326;-62
2024/03/28 10:22:53;;;;;;;;;0.00;0.00;;;;;11.30;68.88;98451.25;5079192;28;45549;-62
2024/03/28 10:25:25;;;;;;;;;0.00;0.00;;;;;11.43;68.74;98454.75;5078864;27;45390;-62
2024/03/28 10:27:56;;;;;;;;;0.00;0.00;;;;;11.34;68.80;98438.53;5078977;27;45337;-62
2024/03/28 10:30:24;;;;;;;;;0.00;0.00;;;;;11.49;68.66;98461.47;5077228;28;45491;-62
2024/03/28 10:33:04;;;;;;;;;0.00;0.00;;;;;11.51;68.67;98470.25;5078938;28;45377;-62
2024/03/28 10:35:33;;;;;;;;;0.00;0.00;;;;;11.42;68.71;98434.34;5078891;27;45348;-62
2024/03/28 10:38:04;;;;;;;;;0.75;0.00;;;;;11.40;68.82;98416.72;5078767;27;45546;-62
2024/03/28 10:40:32;;;;;;;;;0.00;0.00;;;;;11.45;68.70;98442.13;5077566;28;45540;-62
2024/03/28 10:43:00;;;;;;;;;0.25;0.00;;;;;11.79;68.15;98490.44;5078772;27;45395;-63
2024/03/28 10:45:41;;;;;;;;;0.00;0.00;;;;;11.65;68.60;98464.72;5078777;28;45483;-62
2024/03/28 10:48:14;;;;;;;;;0.00;0.00;;;;;11.68;67.51;98469.84;5077506;28;45501;-63
2024/03/28 10:51:05;;;;;;;;;0.00;0.00;;;;;11.92;66.94;98489.59;5078889;28;45576;-62
2024/03/28 10:53:43;;;;;;;;;0.00;0.00;;;;;11.95;66.94;98508.06;5077038;28;45612;-63
2024/03/28 10:56:12;;;;;;;;;0.00;0.00;;;;;11.76;66.74;98485.34;5079385;28;45413;-62
2024/03/28 10:58:38;;;;;;;;;2.00;0.00;;;;;11.91;66.48;98498.53;5082402;27;45370;-62
2024/03/28 11:01:05;;;;;;;;;0.00;0.00;;;;;11.97;66.33;98511.47;5082136;27;45400;-62
2024/03/28 11:03:31;;;;;;;;;0.50;0.50;;;;;11.83;65.97;98512.47;5082376;27;45279;-62
2024/03/28 11:05:59;;;;;;;;;0.00;0.00;;;;;11.95;66.07;98510.75;5081976;28;45371;-62
2024/03/28 11:08:28;;;;;;;;;0.00;0.00;;;;;11.90;66.38;98486.16;5082144;27;45688;-62
2024/03/28 11:10:55;;;;;;;;;0.75;0.00;;;;;11.91;66.09;98494.09;5082066;28;45459;-62
2024/03/28 11:13:21;;;;;;;;;0.00;0.00;;;;;11.99;65.75;98501.53;5080456;28;45785;-62
2024/03/28 11:15:47;;;;;;;;;1.00;0.00;;;;;12.02;65.57;98487.94;5081813;27;45305;-62
2024/03/28 11:18:16;;;;;;;;;0.50;0.00;;;;;12.25;65.37;98517.47;5081815;28;45647;-62
2024/03/28 11:20:50;;;;;;;;;0.00;0.00;;;;;12.06;64.85;98497.41;5081933;27;45465;-62
2024/03/28 11:23:16;;;;;;;;;1.00;1.00;;;;;12.09;64.81;98491.00;5081803;27;45395;-62
2024/03/28 11:25:46;;;;;;;;;0.00;0.00;;;;;12.28;63.91;98530.59;5081330;27;45583;-62
2024/03/28 11:28:12;;;;;;;;;0.00;0.00;;;;;12.20;63.89;98526.66;5080321;28;45334;-62
2024/03/28 11:30:39;;;;;;;;;1.00;0.00;;;;;12.03;63.55;98497.66;5081978;27;45583;-62
2024/03/28 11:33:10;;;;;;;;;0.00;0.00;;;;;12.30;63.48;98515.31;5081530;27;45547;-62
2024/03/28 11:35:40;;;;;;;;;1.00;0.00;;;;;12.20;63.45;98515.13;5081710;27;45594;-62
2024/03/28 11:38:09;;;;;;;;;1.00;0.00;;;;;12.03;63.65;98493.16;5081539;27;45350;-63
2024/03/28 11:40:36;;;;;;;;;0.00;0.00;;;;;12.26;62.96;98513.81;5081607;27;45425;-62